sensor_id;sensor_type;location;lat;lon;timestamp;P1;durP1;ratioP1;P2;durP2;ratioP2
39176;SDS011;24904;52.208;21.192;2023-05-29T00:04:54;13.90;;;4.80;;
39176;SDS011;24904;52.208;21.192;2023-05-29T00:10:00;9.80;;;4.50;;
39176;SDS011;24904;52.208;21.192;2023-05-29T00:15:07;12.90;;;5.70;;
39176;SDS011;24904;52.208;21.192;2023-05-29T00:25:20;9.00;;;4.90;;
39176;SDS011;24904;52.208;21.192;2023-05-29T00:30:26;9.60;;;5.30;;
39176;SDS011;24904;52.208;21.192;2023-05-29T00:35:31;10.10;;;5.30;;
39176;SDS011;24904;52.208;21.192;2023-05-29T00:40:37;10.70;;;5.00;;
39176;SDS011;24904;52.208;21.192;2023-05-29T00:45:45;9.40;;;5.00;;
39176;SDS011;24904;52.208;21.192;2023-05-29T00:50:50;11.90;;;5.10;;
39176;SDS011;24904;52.208;21.192;2023-05-29T00:55:56;7.70;;;4.90;;
39176;SDS011;24904;52.208;21.192;2023-05-29T01:01:05;8.80;;;4.80;;
39176;SDS011;24904;52.208;21.192;2023-05-29T01:06:50;10.70;;;5.40;;
39176;SDS011;24904;52.208;21.192;2023-05-29T01:11:57;14.30;;;4.90;;
39176;SDS011;24904;52.208;21.192;2023-05-29T01:17:06;8.90;;;4.70;;
39176;SDS011;24904;52.208;21.192;2023-05-29T01:22:20;10.70;;;5.10;;
39176;SDS011;24904;52.208;21.192;2023-05-29T01:27:37;10.10;;;4.70;;
39176;SDS011;24904;52.208;21.192;2023-05-29T01:32:44;10.30;;;5.20;;
39176;SDS011;24904;52.208;21.192;2023-05-29T01:37:51;10.70;;;4.90;;
39176;SDS011;24904;52.208;21.192;2023-05-29T01:42:57;8.40;;;4.90;;
39176;SDS011;24904;52.208;21.192;2023-05-29T01:48:02;9.80;;;4.90;;
39176;SDS011;24904;52.208;21.192;2023-05-29T01:53:10;12.20;;;5.00;;
39176;SDS011;24904;52.208;21.192;2023-05-29T01:58:14;10.40;;;5.00;;
39176;SDS011;24904;52.208;21.192;2023-05-29T02:03:20;12.50;;;4.90;;
39176;SDS011;24904;52.208;21.192;2023-05-29T02:08:25;7.30;;;4.40;;
39176;SDS011;24904;52.208;21.192;2023-05-29T02:13:30;7.00;;;4.50;;
39176;SDS011;24904;52.208;21.192;2023-05-29T02:18:35;9.50;;;5.20;;
39176;SDS011;24904;52.208;21.192;2023-05-29T02:23:41;12.60;;;5.30;;
39176;SDS011;24904;52.208;21.192;2023-05-29T02:28:46;16.60;;;5.70;;
39176;SDS011;24904;52.208;21.192;2023-05-29T02:33:50;12.90;;;4.80;;
39176;SDS011;24904;52.208;21.192;2023-05-29T02:38:57;11.80;;;5.00;;
39176;SDS011;24904;52.208;21.192;2023-05-29T02:44:02;11.80;;;5.20;;
39176;SDS011;24904;52.208;21.192;2023-05-29T02:49:07;10.80;;;5.60;;
39176;SDS011;24904;52.208;21.192;2023-05-29T02:54:12;9.20;;;4.90;;
39176;SDS011;24904;52.208;21.192;2023-05-29T02:59:19;7.60;;;4.60;;
39176;SDS011;24904;52.208;21.192;2023-05-29T03:04:27;12.00;;;4.80;;
39176;SDS011;24904;52.208;21.192;2023-05-29T03:09:32;9.00;;;4.70;;
39176;SDS011;24904;52.208;21.192;2023-05-29T03:14:37;8.10;;;4.70;;
39176;SDS011;24904;52.208;21.192;2023-05-29T03:19:45;9.80;;;4.60;;
39176;SDS011;24904;52.208;21.192;2023-05-29T03:24:51;9.60;;;5.10;;
39176;SDS011;24904;52.208;21.192;2023-05-29T03:29:55;11.70;;;5.20;;
39176;SDS011;24904;52.208;21.192;2023-05-29T03:35:00;8.00;;;5.00;;
39176;SDS011;24904;52.208;21.192;2023-05-29T03:40:07;11.30;;;5.40;;
39176;SDS011;24904;52.208;21.192;2023-05-29T03:45:53;9.50;;;4.70;;
39176;SDS011;24904;52.208;21.192;2023-05-29T03:51:00;9.50;;;5.10;;
39176;SDS011;24904;52.208;21.192;2023-05-29T03:56:09;11.50;;;5.60;;
39176;SDS011;24904;52.208;21.192;2023-05-29T04:01:16;13.20;;;5.30;;
39176;SDS011;24904;52.208;21.192;2023-05-29T04:06:21;13.00;;;5.30;;
39176;SDS011;24904;52.208;21.192;2023-05-29T04:11:27;11.40;;;5.30;;
39176;SDS011;24904;52.208;21.192;2023-05-29T04:16:37;11.20;;;5.10;;
39176;SDS011;24904;52.208;21.192;2023-05-29T04:22:23;12.20;;;5.50;;
39176;SDS011;24904;52.208;21.192;2023-05-29T04:27:29;9.60;;;5.00;;
39176;SDS011;24904;52.208;21.192;2023-05-29T04:32:39;7.80;;;4.70;;
39176;SDS011;24904;52.208;21.192;2023-05-29T04:37:45;13.10;;;5.10;;
39176;SDS011;24904;52.208;21.192;2023-05-29T04:42:50;8.60;;;5.00;;
39176;SDS011;24904;52.208;21.192;2023-05-29T04:47:54;10.80;;;5.10;;
39176;SDS011;24904;52.208;21.192;2023-05-29T04:56:16;7.80;;;4.60;;
39176;SDS011;24904;52.208;21.192;2023-05-29T05:01:23;8.20;;;4.60;;
39176;SDS011;24904;52.208;21.192;2023-05-29T05:06:28;6.60;;;4.00;;
39176;SDS011;24904;52.208;21.192;2023-05-29T05:11:34;8.20;;;3.50;;
39176;SDS011;24904;52.208;21.192;2023-05-29T05:16:40;8.70;;;3.80;;
39176;SDS011;24904;52.208;21.192;2023-05-29T05:21:46;9.90;;;3.40;;
39176;SDS011;24904;52.208;21.192;2023-05-29T05:26:51;10.50;;;3.80;;
39176;SDS011;24904;52.208;21.192;2023-05-29T05:31:57;9.60;;;3.70;;
39176;SDS011;24904;52.208;21.192;2023-05-29T05:37:02;6.80;;;3.20;;
39176;SDS011;24904;52.208;21.192;2023-05-29T05:42:08;6.30;;;3.20;;
39176;SDS011;24904;52.208;21.192;2023-05-29T05:47:23;6.30;;;3.30;;
39176;SDS011;24904;52.208;21.192;2023-05-29T05:52:30;6.30;;;3.40;;
39176;SDS011;24904;52.208;21.192;2023-05-29T05:57:36;8.30;;;2.90;;
39176;SDS011;24904;52.208;21.192;2023-05-29T06:02:42;5.50;;;3.00;;
39176;SDS011;24904;52.208;21.192;2023-05-29T06:07:52;4.10;;;2.40;;
39176;SDS011;24904;52.208;21.192;2023-05-29T06:12:57;8.80;;;2.50;;
39176;SDS011;24904;52.208;21.192;2023-05-29T06:18:08;8.60;;;2.70;;
39176;SDS011;24904;52.208;21.192;2023-05-29T06:23:14;6.30;;;2.40;;
39176;SDS011;24904;52.208;21.192;2023-05-29T06:28:19;5.70;;;2.10;;
39176;SDS011;24904;52.208;21.192;2023-05-29T06:33:24;4.30;;;2.20;;
39176;SDS011;24904;52.208;21.192;2023-05-29T06:38:29;4.60;;;2.20;;
39176;SDS011;24904;52.208;21.192;2023-05-29T06:44:12;13.80;;;2.00;;
39176;SDS011;24904;52.208;21.192;2023-05-29T06:49:16;6.90;;;2.60;;
39176;SDS011;24904;52.208;21.192;2023-05-29T06:54:19;4.60;;;1.50;;
39176;SDS011;24904;52.208;21.192;2023-05-29T06:59:23;5.20;;;1.60;;
39176;SDS011;24904;52.208;21.192;2023-05-29T07:04:27;6.00;;;1.80;;
39176;SDS011;24904;52.208;21.192;2023-05-29T07:09:31;6.20;;;1.50;;
39176;SDS011;24904;52.208;21.192;2023-05-29T07:14:34;6.80;;;1.80;;
39176;SDS011;24904;52.208;21.192;2023-05-29T07:19:37;7.40;;;1.90;;
39176;SDS011;24904;52.208;21.192;2023-05-29T07:24:41;11.40;;;2.00;;
39176;SDS011;24904;52.208;21.192;2023-05-29T07:29:44;5.60;;;1.90;;
39176;SDS011;24904;52.208;21.192;2023-05-29T07:34:47;3.30;;;1.40;;
39176;SDS011;24904;52.208;21.192;2023-05-29T07:39:51;16.50;;;2.00;;
39176;SDS011;24904;52.208;21.192;2023-05-29T07:45:14;7.20;;;2.00;;
39176;SDS011;24904;52.208;21.192;2023-05-29T07:50:18;3.00;;;1.50;;
39176;SDS011;24904;52.208;21.192;2023-05-29T07:55:24;5.40;;;1.70;;
39176;SDS011;24904;52.208;21.192;2023-05-29T08:00:30;6.60;;;1.60;;
39176;SDS011;24904;52.208;21.192;2023-05-29T08:05:35;4.40;;;1.60;;
39176;SDS011;24904;52.208;21.192;2023-05-29T08:10:44;5.80;;;1.80;;
39176;SDS011;24904;52.208;21.192;2023-05-29T08:15:47;8.90;;;1.50;;
39176;SDS011;24904;52.208;21.192;2023-05-29T08:20:50;6.60;;;1.90;;
39176;SDS011;24904;52.208;21.192;2023-05-29T08:25:53;3.40;;;1.50;;
39176;SDS011;24904;52.208;21.192;2023-05-29T08:30:56;6.60;;;1.70;;
39176;SDS011;24904;52.208;21.192;2023-05-29T08:35:59;3.20;;;1.30;;
39176;SDS011;24904;52.208;21.192;2023-05-29T08:41:03;12.20;;;1.90;;
39176;SDS011;24904;52.208;21.192;2023-05-29T08:46:08;4.00;;;1.60;;
39176;SDS011;24904;52.208;21.192;2023-05-29T08:51:13;5.80;;;1.60;;
39176;SDS011;24904;52.208;21.192;2023-05-29T08:56:17;7.70;;;1.90;;
39176;SDS011;24904;52.208;21.192;2023-05-29T09:01:20;4.30;;;1.50;;
39176;SDS011;24904;52.208;21.192;2023-05-29T09:06:24;7.90;;;1.90;;
39176;SDS011;24904;52.208;21.192;2023-05-29T09:11:27;5.90;;;1.50;;
39176;SDS011;24904;52.208;21.192;2023-05-29T09:16:30;3.50;;;1.30;;
39176;SDS011;24904;52.208;21.192;2023-05-29T09:21:33;4.20;;;1.50;;
39176;SDS011;24904;52.208;21.192;2023-05-29T09:26:37;8.60;;;1.50;;
39176;SDS011;24904;52.208;21.192;2023-05-29T09:31:50;4.50;;;1.70;;
39176;SDS011;24904;52.208;21.192;2023-05-29T09:36:53;5.00;;;1.40;;
39176;SDS011;24904;52.208;21.192;2023-05-29T09:42:04;5.20;;;1.90;;
39176;SDS011;24904;52.208;21.192;2023-05-29T09:47:08;4.30;;;1.60;;
39176;SDS011;24904;52.208;21.192;2023-05-29T09:52:15;4.60;;;2.00;;
39176;SDS011;24904;52.208;21.192;2023-05-29T09:57:23;6.90;;;2.00;;
39176;SDS011;24904;52.208;21.192;2023-05-29T10:02:28;4.70;;;1.80;;
39176;SDS011;24904;52.208;21.192;2023-05-29T10:07:31;6.10;;;1.70;;
39176;SDS011;24904;52.208;21.192;2023-05-29T10:12:37;4.80;;;1.60;;
39176;SDS011;24904;52.208;21.192;2023-05-29T10:17:44;10.40;;;1.90;;
39176;SDS011;24904;52.208;21.192;2023-05-29T10:22:53;10.00;;;1.80;;
39176;SDS011;24904;52.208;21.192;2023-05-29T10:33:51;3.30;;;1.60;;
39176;SDS011;24904;52.208;21.192;2023-05-29T10:39:02;6.80;;;1.60;;
39176;SDS011;24904;52.208;21.192;2023-05-29T10:49:49;6.10;;;1.50;;
39176;SDS011;24904;52.208;21.192;2023-05-29T10:54:53;4.70;;;1.70;;
39176;SDS011;24904;52.208;21.192;2023-05-29T10:59:58;7.30;;;1.90;;
39176;SDS011;24904;52.208;21.192;2023-05-29T11:05:06;7.90;;;1.90;;
39176;SDS011;24904;52.208;21.192;2023-05-29T11:15:46;7.90;;;1.60;;
39176;SDS011;24904;52.208;21.192;2023-05-29T11:20:50;6.40;;;1.90;;
39176;SDS011;24904;52.208;21.192;2023-05-29T11:25:59;6.30;;;1.50;;
39176;SDS011;24904;52.208;21.192;2023-05-29T11:31:04;4.10;;;1.80;;
39176;SDS011;24904;52.208;21.192;2023-05-29T11:36:11;16.20;;;2.20;;
39176;SDS011;24904;52.208;21.192;2023-05-29T11:41:17;8.10;;;2.00;;
39176;SDS011;24904;52.208;21.192;2023-05-29T11:46:20;4.30;;;1.40;;
39176;SDS011;24904;52.208;21.192;2023-05-29T11:51:23;4.80;;;1.90;;
39176;SDS011;24904;52.208;21.192;2023-05-29T11:56:26;2.60;;;1.70;;
39176;SDS011;24904;52.208;21.192;2023-05-29T12:01:30;29.70;;;2.80;;
39176;SDS011;24904;52.208;21.192;2023-05-29T12:06:36;9.30;;;2.00;;
39176;SDS011;24904;52.208;21.192;2023-05-29T12:11:40;8.10;;;1.90;;
39176;SDS011;24904;52.208;21.192;2023-05-29T12:16:42;6.90;;;2.30;;
39176;SDS011;24904;52.208;21.192;2023-05-29T12:21:46;9.40;;;2.20;;
39176;SDS011;24904;52.208;21.192;2023-05-29T12:26:49;7.90;;;1.90;;
39176;SDS011;24904;52.208;21.192;2023-05-29T12:31:57;4.90;;;1.90;;
39176;SDS011;24904;52.208;21.192;2023-05-29T12:42:07;5.90;;;1.70;;
39176;SDS011;24904;52.208;21.192;2023-05-29T12:47:13;6.90;;;2.10;;
39176;SDS011;24904;52.208;21.192;2023-05-29T12:52:19;14.20;;;2.20;;
39176;SDS011;24904;52.208;21.192;2023-05-29T12:57:25;10.50;;;2.40;;
39176;SDS011;24904;52.208;21.192;2023-05-29T13:02:28;7.60;;;2.30;;
39176;SDS011;24904;52.208;21.192;2023-05-29T13:07:31;8.80;;;2.40;;
39176;SDS011;24904;52.208;21.192;2023-05-29T13:12:35;6.20;;;2.60;;
39176;SDS011;24904;52.208;21.192;2023-05-29T13:17:38;10.00;;;2.30;;
39176;SDS011;24904;52.208;21.192;2023-05-29T13:22:42;6.10;;;2.40;;
39176;SDS011;24904;52.208;21.192;2023-05-29T13:27:47;7.40;;;2.60;;
39176;SDS011;24904;52.208;21.192;2023-05-29T13:32:51;9.50;;;2.20;;
39176;SDS011;24904;52.208;21.192;2023-05-29T13:37:55;11.80;;;2.90;;
39176;SDS011;24904;52.208;21.192;2023-05-29T13:42:58;7.70;;;2.50;;
39176;SDS011;24904;52.208;21.192;2023-05-29T13:48:02;16.00;;;2.40;;
39176;SDS011;24904;52.208;21.192;2023-05-29T13:53:05;8.20;;;2.70;;
39176;SDS011;24904;52.208;21.192;2023-05-29T13:58:08;7.00;;;2.70;;
39176;SDS011;24904;52.208;21.192;2023-05-29T14:03:12;11.10;;;2.20;;
39176;SDS011;24904;52.208;21.192;2023-05-29T14:08:16;8.60;;;2.70;;
39176;SDS011;24904;52.208;21.192;2023-05-29T14:13:19;9.30;;;2.00;;
39176;SDS011;24904;52.208;21.192;2023-05-29T14:18:22;11.50;;;2.40;;
39176;SDS011;24904;52.208;21.192;2023-05-29T14:23:25;11.60;;;2.20;;
39176;SDS011;24904;52.208;21.192;2023-05-29T14:28:28;15.80;;;2.40;;
39176;SDS011;24904;52.208;21.192;2023-05-29T14:33:31;13.20;;;2.50;;
39176;SDS011;24904;52.208;21.192;2023-05-29T14:38:35;10.40;;;2.90;;
39176;SDS011;24904;52.208;21.192;2023-05-29T14:43:41;6.80;;;2.20;;
39176;SDS011;24904;52.208;21.192;2023-05-29T14:48:45;15.80;;;3.50;;
39176;SDS011;24904;52.208;21.192;2023-05-29T14:53:50;7.10;;;2.00;;
39176;SDS011;24904;52.208;21.192;2023-05-29T14:58:55;12.70;;;3.60;;
39176;SDS011;24904;52.208;21.192;2023-05-29T15:03:59;14.80;;;2.90;;
39176;SDS011;24904;52.208;21.192;2023-05-29T15:09:05;6.50;;;2.40;;
39176;SDS011;24904;52.208;21.192;2023-05-29T15:14:10;5.40;;;2.20;;
39176;SDS011;24904;52.208;21.192;2023-05-29T15:19:16;10.60;;;2.50;;
39176;SDS011;24904;52.208;21.192;2023-05-29T15:24:22;9.00;;;2.10;;
39176;SDS011;24904;52.208;21.192;2023-05-29T15:29:26;12.30;;;2.60;;
39176;SDS011;24904;52.208;21.192;2023-05-29T15:46:38;4.60;;;2.10;;
39176;SDS011;24904;52.208;21.192;2023-05-29T15:51:42;8.00;;;2.30;;
39176;SDS011;24904;52.208;21.192;2023-05-29T15:56:45;4.70;;;2.10;;
39176;SDS011;24904;52.208;21.192;2023-05-29T16:01:48;5.40;;;2.20;;
39176;SDS011;24904;52.208;21.192;2023-05-29T16:06:51;8.10;;;2.80;;
39176;SDS011;24904;52.208;21.192;2023-05-29T16:19:15;7.10;;;2.60;;
39176;SDS011;24904;52.208;21.192;2023-05-29T16:24:21;5.90;;;2.50;;
39176;SDS011;24904;52.208;21.192;2023-05-29T16:29:27;5.40;;;2.10;;
39176;SDS011;24904;52.208;21.192;2023-05-29T16:34:32;8.10;;;2.20;;
39176;SDS011;24904;52.208;21.192;2023-05-29T16:39:37;12.90;;;2.00;;
39176;SDS011;24904;52.208;21.192;2023-05-29T16:44:42;7.00;;;2.90;;
39176;SDS011;24904;52.208;21.192;2023-05-29T16:49:50;8.00;;;2.40;;
39176;SDS011;24904;52.208;21.192;2023-05-29T16:54:55;22.80;;;3.60;;
39176;SDS011;24904;52.208;21.192;2023-05-29T17:00:04;10.40;;;2.90;;
39176;SDS011;24904;52.208;21.192;2023-05-29T17:05:11;12.00;;;2.60;;
39176;SDS011;24904;52.208;21.192;2023-05-29T17:10:16;9.60;;;2.40;;
39176;SDS011;24904;52.208;21.192;2023-05-29T17:15:21;5.10;;;2.40;;
39176;SDS011;24904;52.208;21.192;2023-05-29T17:20:26;11.30;;;2.80;;
39176;SDS011;24904;52.208;21.192;2023-05-29T17:25:31;7.80;;;2.70;;
39176;SDS011;24904;52.208;21.192;2023-05-29T17:30:36;3.10;;;2.00;;
39176;SDS011;24904;52.208;21.192;2023-05-29T17:35:42;6.50;;;2.20;;
39176;SDS011;24904;52.208;21.192;2023-05-29T17:40:47;7.30;;;2.20;;
39176;SDS011;24904;52.208;21.192;2023-05-29T17:45:53;4.60;;;2.10;;
39176;SDS011;24904;52.208;21.192;2023-05-29T17:50:59;6.50;;;2.30;;
39176;SDS011;24904;52.208;21.192;2023-05-29T17:56:04;9.60;;;3.00;;
39176;SDS011;24904;52.208;21.192;2023-05-29T18:01:10;4.70;;;2.30;;
39176;SDS011;24904;52.208;21.192;2023-05-29T18:06:16;6.60;;;3.10;;
39176;SDS011;24904;52.208;21.192;2023-05-29T18:11:21;7.80;;;2.70;;
39176;SDS011;24904;52.208;21.192;2023-05-29T18:16:29;8.10;;;2.40;;
39176;SDS011;24904;52.208;21.192;2023-05-29T18:21:40;8.70;;;2.80;;
39176;SDS011;24904;52.208;21.192;2023-05-29T18:26:45;10.50;;;3.20;;
39176;SDS011;24904;52.208;21.192;2023-05-29T18:31:50;8.30;;;3.90;;
39176;SDS011;24904;52.208;21.192;2023-05-29T18:36:55;8.50;;;3.60;;
39176;SDS011;24904;52.208;21.192;2023-05-29T18:42:00;10.70;;;3.70;;
39176;SDS011;24904;52.208;21.192;2023-05-29T18:47:06;20.70;;;6.10;;
39176;SDS011;24904;52.208;21.192;2023-05-29T18:52:13;12.50;;;4.00;;
39176;SDS011;24904;52.208;21.192;2023-05-29T18:57:18;11.80;;;3.50;;
39176;SDS011;24904;52.208;21.192;2023-05-29T19:02:23;10.20;;;4.10;;
39176;SDS011;24904;52.208;21.192;2023-05-29T19:07:28;11.40;;;3.40;;
39176;SDS011;24904;52.208;21.192;2023-05-29T19:12:33;15.10;;;4.20;;
39176;SDS011;24904;52.208;21.192;2023-05-29T19:17:38;13.80;;;4.60;;
39176;SDS011;24904;52.208;21.192;2023-05-29T19:22:49;9.80;;;4.10;;
39176;SDS011;24904;52.208;21.192;2023-05-29T19:27:55;8.30;;;3.90;;
39176;SDS011;24904;52.208;21.192;2023-05-29T19:33:00;12.40;;;4.40;;
39176;SDS011;24904;52.208;21.192;2023-05-29T19:38:05;11.40;;;4.30;;
39176;SDS011;24904;52.208;21.192;2023-05-29T19:43:11;13.50;;;4.30;;
39176;SDS011;24904;52.208;21.192;2023-05-29T19:48:17;8.90;;;3.50;;
39176;SDS011;24904;52.208;21.192;2023-05-29T19:53:22;9.50;;;3.70;;
39176;SDS011;24904;52.208;21.192;2023-05-29T19:58:27;12.40;;;3.70;;
39176;SDS011;24904;52.208;21.192;2023-05-29T20:03:32;10.40;;;3.50;;
39176;SDS011;24904;52.208;21.192;2023-05-29T20:08:38;7.80;;;3.70;;
39176;SDS011;24904;52.208;21.192;2023-05-29T20:13:43;12.10;;;3.40;;
39176;SDS011;24904;52.208;21.192;2023-05-29T20:18:50;9.20;;;3.30;;
39176;SDS011;24904;52.208;21.192;2023-05-29T20:23:55;6.90;;;3.50;;
39176;SDS011;24904;52.208;21.192;2023-05-29T20:29:00;7.40;;;3.00;;
39176;SDS011;24904;52.208;21.192;2023-05-29T20:34:05;10.60;;;3.60;;
39176;SDS011;24904;52.208;21.192;2023-05-29T20:39:11;13.00;;;3.70;;
39176;SDS011;24904;52.208;21.192;2023-05-29T20:44:17;9.80;;;3.60;;
39176;SDS011;24904;52.208;21.192;2023-05-29T20:49:22;9.30;;;3.80;;
39176;SDS011;24904;52.208;21.192;2023-05-29T20:54:27;11.10;;;3.70;;
39176;SDS011;24904;52.208;21.192;2023-05-29T20:59:32;9.80;;;3.50;;
39176;SDS011;24904;52.208;21.192;2023-05-29T21:04:37;8.60;;;3.60;;
39176;SDS011;24904;52.208;21.192;2023-05-29T21:09:42;9.00;;;3.70;;
39176;SDS011;24904;52.208;21.192;2023-05-29T21:14:47;7.40;;;3.00;;
39176;SDS011;24904;52.208;21.192;2023-05-29T21:19:53;6.30;;;3.10;;
39176;SDS011;24904;52.208;21.192;2023-05-29T21:25:02;10.10;;;3.70;;
39176;SDS011;24904;52.208;21.192;2023-05-29T21:30:11;10.00;;;2.90;;
39176;SDS011;24904;52.208;21.192;2023-05-29T21:35:36;11.60;;;3.80;;
39176;SDS011;24904;52.208;21.192;2023-05-29T21:40:42;9.40;;;3.80;;
39176;SDS011;24904;52.208;21.192;2023-05-29T21:45:47;8.10;;;3.60;;
39176;SDS011;24904;52.208;21.192;2023-05-29T21:50:53;11.20;;;3.20;;
39176;SDS011;24904;52.208;21.192;2023-05-29T21:55:58;8.70;;;3.40;;
39176;SDS011;24904;52.208;21.192;2023-05-29T22:01:04;6.70;;;2.90;;
39176;SDS011;24904;52.208;21.192;2023-05-29T22:06:10;18.10;;;3.30;;
39176;SDS011;24904;52.208;21.192;2023-05-29T22:11:15;11.80;;;4.00;;
39176;SDS011;24904;52.208;21.192;2023-05-29T22:16:20;14.30;;;3.90;;
39176;SDS011;24904;52.208;21.192;2023-05-29T22:21:25;8.50;;;3.60;;
39176;SDS011;24904;52.208;21.192;2023-05-29T22:26:30;10.60;;;3.60;;
39176;SDS011;24904;52.208;21.192;2023-05-29T22:31:35;10.90;;;3.30;;
39176;SDS011;24904;52.208;21.192;2023-05-29T22:36:40;9.50;;;3.20;;
39176;SDS011;24904;52.208;21.192;2023-05-29T22:41:45;11.10;;;2.90;;
39176;SDS011;24904;52.208;21.192;2023-05-29T22:50:57;7.70;;;3.40;;
39176;SDS011;24904;52.208;21.192;2023-05-29T22:56:00;4.60;;;2.50;;
39176;SDS011;24904;52.208;21.192;2023-05-29T23:01:42;5.90;;;2.80;;
39176;SDS011;24904;52.208;21.192;2023-05-29T23:06:45;10.10;;;3.00;;
39176;SDS011;24904;52.208;21.192;2023-05-29T23:11:49;12.90;;;3.80;;
39176;SDS011;24904;52.208;21.192;2023-05-29T23:16:53;8.50;;;3.00;;
39176;SDS011;24904;52.208;21.192;2023-05-29T23:21:56;7.90;;;3.20;;
39176;SDS011;24904;52.208;21.192;2023-05-29T23:26:59;9.30;;;3.40;;
39176;SDS011;24904;52.208;21.192;2023-05-29T23:32:03;12.80;;;3.60;;
39176;SDS011;24904;52.208;21.192;2023-05-29T23:37:07;5.90;;;2.90;;
39176;SDS011;24904;52.208;21.192;2023-05-29T23:42:11;9.90;;;2.80;;
39176;SDS011;24904;52.208;21.192;2023-05-29T23:47:14;9.00;;;3.30;;
39176;SDS011;24904;52.208;21.192;2023-05-29T23:52:17;6.60;;;2.80;;
39176;SDS011;24904;52.208;21.192;2023-05-29T23:57:20;10.60;;;3.40;;
